createdAt,value
2022-08-30T00:00:11.893Z,101486.19
2022-08-30T00:02:39.089Z,101481.75
2022-08-30T00:05:06.088Z,101482.13
2022-08-30T00:07:32.908Z,101481.28
2022-08-30T00:09:59.724Z,101477.66
2022-08-30T00:12:26.694Z,101477.94
2022-08-30T00:14:53.824Z,101467.09
2022-08-30T00:17:20.400Z,101476.84
2022-08-30T00:19:46.931Z,101473.25
2022-08-30T00:22:13.603Z,101479.09
2022-08-30T00:24:40.135Z,101473.38
2022-08-30T00:27:06.665Z,101478.81
2022-08-30T00:29:33.187Z,101483.22
2022-08-30T00:32:01.159Z,101481.47
2022-08-30T00:34:28.027Z,101483.63
2022-08-30T00:36:54.569Z,101490.41
2022-08-30T00:39:21.235Z,101485.91
2022-08-30T00:41:48.593Z,101486.09
2022-08-30T00:44:15.365Z,101482.03
2022-08-30T00:46:42.028Z,101486.09
2022-08-30T00:49:11.615Z,101496.16
2022-08-30T00:51:40.481Z,101501.28
2022-08-30T00:54:07.913Z,101496.34
2022-08-30T00:56:35.784Z,101502.28
2022-08-30T00:59:05.125Z,101502.50
2022-08-30T01:01:34.273Z,101504.75
2022-08-30T01:04:01.454Z,101507.03
2022-08-30T01:06:32.578Z,101504.38
2022-08-30T01:09:00.893Z,101509.00
2022-08-30T01:11:28.156Z,101502.09
2022-08-30T01:13:56.137Z,101505.44
2022-08-30T01:16:25.288Z,101504.19
2022-08-30T01:18:57.440Z,101504.78
2022-08-30T01:21:36.905Z,101509.25
2022-08-30T01:24:05.784Z,101510.09
2022-08-30T01:26:34.705Z,101514.41
2022-08-30T01:29:10.114Z,101513.97
2022-08-30T01:31:36.944Z,101508.75
2022-08-30T01:34:07.517Z,101513.19
2022-08-30T01:36:37.666Z,101504.03
2022-08-30T01:39:13.635Z,101504.25
2022-08-30T01:41:40.328Z,101507.94
2022-08-30T01:44:10.181Z,101503.66
2022-08-30T01:46:41.231Z,101507.13
2022-08-30T01:49:11.035Z,101501.91
2022-08-30T01:51:38.438Z,101511.25
2022-08-30T01:54:06.120Z,101504.31
2022-08-30T01:56:32.730Z,101506.94
2022-08-30T01:59:02.813Z,101503.31
2022-08-30T02:01:32.864Z,101513.50
2022-08-30T02:04:00.601Z,101511.47
2022-08-30T02:06:27.339Z,101511.84
2022-08-30T02:08:53.853Z,101510.47
2022-08-30T02:11:20.829Z,101510.44
2022-08-30T02:13:47.675Z,101506.38
2022-08-30T02:16:18.723Z,101506.75
2022-08-30T02:18:45.475Z,101500.66
2022-08-30T02:21:13.105Z,101503.09
2022-08-30T02:23:39.673Z,101498.22
2022-08-30T02:26:06.506Z,101504.34
2022-08-30T02:28:33.298Z,101510.03
2022-08-30T02:31:01.026Z,101504.53
2022-08-30T02:33:28.021Z,101505.97
2022-08-30T02:35:56.036Z,101505.38
2022-08-30T02:38:23.738Z,101501.06
2022-08-30T02:40:51.179Z,101500.28
2022-08-30T02:43:18.296Z,101502.53
2022-08-30T02:45:45.069Z,101494.78
2022-08-30T02:48:11.663Z,101494.97
2022-08-30T02:50:42.721Z,101488.66
2022-08-30T02:53:09.501Z,101490.09
2022-08-30T02:55:40.682Z,101490.09
2022-08-30T02:58:08.033Z,101492.94
2022-08-30T03:00:35.067Z,101484.41
2022-08-30T03:03:03.955Z,101475.41
2022-08-30T03:05:32.945Z,101484.59
2022-08-30T03:08:00.375Z,101474.59
2022-08-30T03:10:28.638Z,101481.53
2022-08-30T03:12:56.050Z,101477.88
2022-08-30T03:15:25.345Z,101484.81
2022-08-30T03:17:53.192Z,101476.66
2022-08-30T03:20:21.310Z,101484.00
2022-08-30T03:22:47.968Z,101484.63
2022-08-30T03:25:15.156Z,101483.56
2022-08-30T03:27:41.699Z,101479.06
2022-08-30T03:30:09.231Z,101476.22
2022-08-30T03:32:36.180Z,101474.59
2022-08-30T03:35:02.742Z,101477.06
2022-08-30T03:37:29.249Z,101486.63
2022-08-30T03:39:56.410Z,101480.13
2022-08-30T03:42:24.240Z,101478.50
2022-08-30T03:44:51.807Z,101476.03
2022-08-30T03:47:18.384Z,101471.59
2022-08-30T03:49:46.185Z,101473.00
2022-08-30T03:52:12.735Z,101466.09
2022-08-30T03:54:40.156Z,101465.28
2022-08-30T03:57:07.227Z,101473.00
2022-08-30T03:59:33.814Z,101474.84
2022-08-30T04:02:00.426Z,101470.97
2022-08-30T04:04:27.070Z,101469.94
2022-08-30T04:06:53.640Z,101475.84
2022-08-30T04:09:20.182Z,101472.59
2022-08-30T04:11:46.882Z,101476.28
2022-08-30T04:14:13.922Z,101478.28
2022-08-30T04:16:40.818Z,101477.50
2022-08-30T04:19:07.454Z,101490.13
2022-08-30T04:21:35.530Z,101485.19
2022-08-30T04:24:09.576Z,101487.25
2022-08-30T04:26:36.204Z,101488.66
2022-08-30T04:29:03.419Z,101487.06
2022-08-30T04:31:31.262Z,101488.09
2022-08-30T04:33:57.843Z,101490.91
2022-08-30T04:36:24.386Z,101482.59
2022-08-30T04:38:50.964Z,101491.34
2022-08-30T04:41:19.440Z,101488.28
2022-08-30T04:43:47.339Z,101491.94
2022-08-30T04:46:14.062Z,101492.34
2022-08-30T04:48:40.735Z,101493.16
2022-08-30T04:51:09.979Z,101493.56
2022-08-30T04:53:37.389Z,101497.84
2022-08-30T04:56:09.503Z,101494.16
2022-08-30T04:58:36.091Z,101509.66
2022-08-30T05:01:03.323Z,101513.13
2022-08-30T05:03:31.073Z,101508.84
2022-08-30T05:05:57.680Z,101517.38
2022-08-30T05:08:24.979Z,101516.78
2022-08-30T05:10:52.480Z,101524.09
2022-08-30T05:13:21.260Z,101513.72
2022-08-30T05:16:03.397Z,101524.50
2022-08-30T05:18:30.069Z,101520.59
2022-08-30T05:21:25.481Z,101522.66
2022-08-30T05:23:54.399Z,101521.22
2022-08-30T05:26:25.059Z,101525.41
2022-08-30T05:28:52.216Z,101523.44
2022-08-30T05:31:24.952Z,101523.47
2022-08-30T05:33:53.911Z,101531.63
2022-08-30T05:36:23.767Z,101528.78
2022-08-30T05:38:50.713Z,101525.75
2022-08-30T05:41:19.605Z,101527.97
2022-08-30T05:43:47.045Z,101528.59
2022-08-30T05:46:19.182Z,101528.78
2022-08-30T05:48:46.897Z,101534.06
2022-08-30T05:51:17.555Z,101532.25
2022-08-30T05:53:45.292Z,101529.63
2022-08-30T05:56:14.603Z,101525.13
2022-08-30T05:58:42.067Z,101521.25
2022-08-30T06:01:22.563Z,101522.91
2022-08-30T06:03:51.229Z,101520.22
2022-08-30T06:06:17.903Z,101529.91
2022-08-30T06:08:48.402Z,101530.56
2022-08-30T06:11:18.450Z,101527.06
2022-08-30T06:13:45.864Z,101526.25
2022-08-30T06:16:14.173Z,101529.53
2022-08-30T06:18:40.765Z,101528.88
2022-08-30T06:21:07.499Z,101528.66
2022-08-30T06:23:34.774Z,101534.91
2022-08-30T06:26:06.693Z,101533.41
2022-08-30T06:28:34.329Z,101529.75
2022-08-30T06:31:00.903Z,101530.72
2022-08-30T06:33:27.515Z,101529.69
2022-08-30T06:35:58.275Z,101533.81
2022-08-30T06:38:26.021Z,101532.88
2022-08-30T06:40:52.543Z,101526.81
2022-08-30T06:43:19.087Z,101528.97
2022-08-30T06:45:45.688Z,101525.13
2022-08-30T06:48:12.388Z,101514.94
2022-08-30T06:50:38.981Z,101525.09
2022-08-30T06:53:06.086Z,101525.69
2022-08-30T06:55:33.437Z,101525.66
2022-08-30T06:58:01.236Z,101529.66
2022-08-30T07:00:28.896Z,101519.84
2022-08-30T07:02:55.793Z,101526.28
2022-08-30T07:05:23.617Z,101524.34
2022-08-30T07:07:53.312Z,101529.34
2022-08-30T07:10:21.386Z,101526.97
2022-08-30T07:12:48.304Z,101529.06
2022-08-30T07:15:15.649Z,101528.78
2022-08-30T07:18:00.796Z,101525.97
2022-08-30T07:20:27.465Z,101533.06
2022-08-30T07:22:54.205Z,101528.09
2022-08-30T07:25:20.821Z,101529.44
2022-08-30T07:27:47.559Z,101522.16
2022-08-30T07:30:14.129Z,101531.97
2022-08-30T07:32:40.782Z,101526.81
2022-08-30T07:35:07.606Z,101532.34
2022-08-30T07:37:34.280Z,101532.00
2022-08-30T07:40:00.929Z,101532.31
2022-08-30T07:42:27.567Z,101531.28
2022-08-30T07:44:56.735Z,101534.22
2022-08-30T07:47:23.589Z,101539.69
2022-08-30T07:49:50.151Z,101535.19
2022-08-30T07:52:16.755Z,101532.16
2022-08-30T07:54:43.399Z,101533.28
2022-08-30T07:57:11.314Z,101539.63
2022-08-30T07:59:37.883Z,101534.66
2022-08-30T08:02:04.841Z,101539.97
2022-08-30T08:04:31.622Z,101538.19
2022-08-30T08:06:58.313Z,101545.41
2022-08-30T08:09:24.842Z,101545.53
2022-08-30T08:11:51.398Z,101537.19
2022-08-30T08:14:18.080Z,101539.78
2022-08-30T08:16:46.593Z,101537.97
2022-08-30T08:19:13.140Z,101538.66
2022-08-30T08:21:39.768Z,101540.78
2022-08-30T08:24:06.362Z,101536.34
2022-08-30T08:26:36.605Z,101538.78
2022-08-30T08:29:04.320Z,101539.50
2022-08-30T08:31:33.733Z,101528.38
2022-08-30T08:34:02.564Z,101535.53
2022-08-30T08:36:31.195Z,101539.44
2022-08-30T08:38:58.566Z,101549.53
2022-08-30T08:41:43.715Z,101543.72
2022-08-30T08:44:19.283Z,101542.41
2022-08-30T08:46:57.614Z,101547.47
2022-08-30T08:49:25.401Z,101544.16
2022-08-30T08:52:10.637Z,101542.34
2022-08-30T08:54:44.650Z,101540.63
2022-08-30T08:57:13.928Z,101543.31
2022-08-30T08:59:44.778Z,101545.09
2022-08-30T09:02:24.995Z,101549.38
2022-08-30T09:04:57.982Z,101547.53
2022-08-30T09:07:29.623Z,101543.25
2022-08-30T09:10:00.485Z,101539.75
2022-08-30T09:12:27.669Z,101535.38
2022-08-30T09:15:01.556Z,101532.69
2022-08-30T09:17:28.575Z,101530.97
2022-08-30T09:19:55.591Z,101522.31
2022-08-30T09:22:36.354Z,101522.22
2022-08-30T09:25:11.748Z,101521.53
2022-08-30T09:27:40.158Z,101532.88
2022-08-30T09:30:30.096Z,101527.19
2022-08-30T09:33:06.060Z,101524.75
2022-08-30T09:35:34.484Z,101533.22
2022-08-30T09:38:16.839Z,101526.19
2022-08-30T09:40:50.569Z,101524.53
2022-08-30T09:43:17.439Z,101527.06
2022-08-30T09:45:47.858Z,101534.81
2022-08-30T09:48:40.196Z,101528.59
2022-08-30T09:51:15.808Z,101518.06
2022-08-30T09:54:17.353Z,101517.47
2022-08-30T09:57:12.971Z,101522.00
2022-08-30T09:59:48.685Z,101522.03
2022-08-30T10:02:33.731Z,101519.66
2022-08-30T10:05:12.222Z,101525.13
2022-08-30T10:08:04.973Z,101514.16
2022-08-30T10:10:55.034Z,101523.00
2022-08-30T10:13:47.006Z,101514.47
2022-08-30T10:16:21.013Z,101518.84
2022-08-30T10:19:16.123Z,101514.66
2022-08-30T10:21:49.983Z,101522.28
2022-08-30T10:24:24.604Z,101523.47
2022-08-30T10:27:24.842Z,101520.66
2022-08-30T10:30:00.743Z,101520.88
2022-08-30T10:32:39.537Z,101512.91
2022-08-30T10:35:19.211Z,101516.00
2022-08-30T10:37:59.045Z,101513.19
2022-08-30T10:40:54.627Z,101517.16
2022-08-30T10:43:31.808Z,101525.50
2022-08-30T10:46:03.875Z,101512.16
2022-08-30T10:48:36.672Z,101515.72
2022-08-30T10:51:12.788Z,101516.13
2022-08-30T10:53:57.705Z,101517.50
2022-08-30T10:56:29.314Z,101512.06
2022-08-30T10:58:58.331Z,101512.88
2022-08-30T11:01:47.979Z,101512.56
2022-08-30T11:04:24.965Z,101509.72
2022-08-30T11:06:54.035Z,101509.81
2022-08-30T11:09:21.557Z,101505.53
2022-08-30T11:12:22.144Z,101508.06
2022-08-30T11:14:49.174Z,101509.63
2022-08-30T11:17:32.339Z,101505.50
2022-08-30T11:20:02.535Z,101508.13
2022-08-30T11:22:38.796Z,101505.53
2022-08-30T11:25:14.266Z,101502.94
2022-08-30T11:27:58.769Z,101508.16
2022-08-30T11:30:26.411Z,101509.38
2022-08-30T11:32:59.961Z,101503.25
2022-08-30T11:35:48.429Z,101502.94
2022-08-30T11:38:20.145Z,101502.66
2022-08-30T11:40:51.095Z,101499.56
2022-08-30T11:43:36.536Z,101500.22
2022-08-30T11:46:19.349Z,101502.66
2022-08-30T11:48:54.412Z,101508.97
2022-08-30T11:51:40.909Z,101497.19
2022-08-30T11:54:18.373Z,101494.19
2022-08-30T11:56:54.460Z,101498.22
2022-08-30T11:59:33.219Z,101495.50
2022-08-30T12:02:01.441Z,101484.88
2022-08-30T12:04:37.459Z,101495.22
2022-08-30T12:07:07.797Z,101482.38
2022-08-30T12:09:35.116Z,101487.47
2022-08-30T12:12:30.700Z,101485.72
2022-08-30T12:14:58.030Z,101487.84
2022-08-30T12:17:50.781Z,101483.75
2022-08-30T12:20:26.731Z,101480.56
2022-08-30T12:22:54.720Z,101475.22
2022-08-30T12:25:30.045Z,101486.78
2022-08-30T12:28:11.885Z,101470.34
2022-08-30T12:30:40.095Z,101477.91
2022-08-30T12:33:11.984Z,101463.50
2022-08-30T12:35:40.675Z,101462.22
2022-08-30T12:38:16.509Z,101464.13
2022-08-30T12:40:57.771Z,101468.03
2022-08-30T12:43:33.114Z,101461.06
2022-08-30T12:46:11.889Z,101471.22
2022-08-30T12:48:41.164Z,101467.16
2022-08-30T12:51:10.837Z,101469.97
2022-08-30T12:53:44.266Z,101465.38
2022-08-30T12:56:13.757Z,101462.94
2022-08-30T12:58:43.438Z,101457.16
2022-08-30T13:01:26.596Z,101454.34
2022-08-30T13:03:59.734Z,101450.63
2022-08-30T13:06:52.773Z,101453.69
2022-08-30T13:09:38.941Z,101467.28
2022-08-30T13:12:30.817Z,101456.03
2022-08-30T13:15:17.388Z,101438.59
2022-08-30T13:17:45.184Z,101444.66
2022-08-30T13:20:44.532Z,101449.03
2022-08-30T13:23:11.242Z,101449.03
2022-08-30T13:25:39.563Z,101438.38
2022-08-30T13:28:07.395Z,101442.63
2022-08-30T13:30:34.247Z,101433.19
2022-08-30T13:33:02.293Z,101442.00
2022-08-30T13:35:30.442Z,101426.03
2022-08-30T13:37:59.513Z,101431.66
2022-08-30T13:40:26.142Z,101434.94
2022-08-30T13:42:52.812Z,101422.72
2022-08-30T13:48:07.202Z,101419.53
2022-08-30T13:50:33.782Z,101407.53
2022-08-30T13:53:00.380Z,101410.25
2022-08-30T13:55:27.776Z,101405.78
2022-08-30T13:57:55.426Z,101412.25
2022-08-30T14:00:23.466Z,101422.06
2022-08-30T14:02:54.790Z,101410.91
2022-08-30T14:05:49.608Z,101407.38
2022-08-30T14:11:12.436Z,101406.09
2022-08-30T14:14:14.652Z,101399.00
2022-08-30T14:16:27.989Z,101404.75
2022-08-30T14:18:56.183Z,101403.94
2022-08-30T14:21:24.457Z,101397.09
2022-08-30T14:23:58.713Z,101397.81
2022-08-30T14:26:45.791Z,101396.06
2022-08-30T14:29:14.728Z,101384.53
2022-08-30T14:31:41.822Z,101393.66
2022-08-30T14:34:10.935Z,101384.78
2022-08-30T14:36:40.829Z,101391.97
2022-08-30T14:39:12.189Z,101376.19
2022-08-30T14:41:46.098Z,101382.28
2022-08-30T14:44:14.869Z,101390.63
2022-08-30T14:46:42.903Z,101385.72
2022-08-30T14:49:11.503Z,101401.34
2022-08-30T14:51:38.634Z,101382.28
2022-08-30T14:54:05.253Z,101382.28
2022-08-30T14:56:31.828Z,101373.94
2022-08-30T14:59:00.613Z,101375.28
2022-08-30T15:01:28.541Z,101378.59
2022-08-30T15:03:55.977Z,101371.63
2022-08-30T15:06:22.744Z,101361.81
2022-08-30T15:08:53.747Z,101360.63
2022-08-30T15:11:21.713Z,101371.97
2022-08-30T15:13:48.904Z,101358.06
2022-08-30T15:16:24.567Z,101357.88
2022-08-30T15:18:51.246Z,101355.50
2022-08-30T15:21:33.316Z,101353.25
2022-08-30T15:24:01.704Z,101353.34
2022-08-30T15:26:28.945Z,101368.00
2022-08-30T15:28:56.733Z,101356.03
2022-08-30T15:31:28.147Z,101351.75
2022-08-30T15:33:55.021Z,101359.19
2022-08-30T15:36:23.285Z,101345.91
2022-08-30T15:38:49.876Z,101356.59
2022-08-30T15:41:16.592Z,101349.50
2022-08-30T15:43:43.194Z,101346.53
2022-08-30T15:46:17.437Z,101346.38
2022-08-30T15:48:46.145Z,101341.28
2022-08-30T15:51:13.500Z,101338.66
2022-08-30T15:53:40.416Z,101341.00
2022-08-30T15:56:07.313Z,101333.63
2022-08-30T15:58:35.193Z,101329.81
2022-08-30T16:01:02.187Z,101320.41
2022-08-30T16:03:29.470Z,101330.03
2022-08-30T16:05:56.848Z,101321.13
2022-08-30T16:08:23.819Z,101321.44
2022-08-30T16:10:52.481Z,101313.69
2022-08-30T16:13:19.141Z,101315.47
2022-08-30T16:15:46.095Z,101314.25
2022-08-30T16:18:14.594Z,101320.09
2022-08-30T16:20:42.033Z,101326.00
2022-08-30T16:23:10.294Z,101326.34
2022-08-30T16:25:40.882Z,101313.38
2022-08-30T16:28:09.505Z,101327.91
2022-08-30T16:30:36.494Z,101322.88
2022-08-30T16:33:03.120Z,101325.63
2022-08-30T16:35:29.651Z,101325.38
2022-08-30T16:37:56.223Z,101320.34
2022-08-30T16:40:22.824Z,101317.84
2022-08-30T16:42:50.688Z,101321.88
2022-08-30T16:45:17.996Z,101328.91
2022-08-30T16:47:45.905Z,101323.66
2022-08-30T16:50:13.094Z,101324.69
2022-08-30T16:52:43.973Z,101313.94
2022-08-30T16:55:10.785Z,101317.78
2022-08-30T16:57:38.619Z,101312.75
2022-08-30T17:00:13.235Z,101321.28
2022-08-30T17:02:40.884Z,101316.84
2022-08-30T17:05:14.677Z,101315.72
2022-08-30T17:07:41.970Z,101317.53
2022-08-30T17:10:08.974Z,101326.09
2022-08-30T17:12:35.690Z,101318.94
2022-08-30T17:15:05.599Z,101315.72
2022-08-30T17:17:32.553Z,101323.88
2022-08-30T17:19:59.141Z,101328.09
2022-08-30T17:22:26.261Z,101333.63
2022-08-30T17:24:53.045Z,101332.19
2022-08-30T17:27:19.762Z,101336.91
2022-08-30T17:29:46.333Z,101338.16
2022-08-30T17:32:12.952Z,101335.91
2022-08-30T17:34:40.000Z,101342.28
2022-08-30T17:37:06.648Z,101343.88
2022-08-30T17:39:33.872Z,101358.16
2022-08-30T17:42:00.850Z,101352.72
2022-08-30T17:44:30.368Z,101355.31
2022-08-30T17:46:57.599Z,101358.28
2022-08-30T17:49:25.011Z,101362.31
2022-08-30T17:51:56.083Z,101370.16
2022-08-30T17:54:24.357Z,101365.06
2022-08-30T17:56:52.305Z,101372.03
2022-08-30T17:59:19.475Z,101379.56
2022-08-30T18:01:51.842Z,101377.19
2022-08-30T18:04:19.888Z,101380.53
2022-08-30T18:06:47.946Z,101376.88
2022-08-30T18:09:14.670Z,101387.44
2022-08-30T18:11:41.249Z,101380.34
2022-08-30T18:14:11.105Z,101387.63
2022-08-30T18:16:50.245Z,101391.28
2022-08-30T18:19:28.669Z,101386.94
2022-08-30T18:21:55.681Z,101400.16
2022-08-30T18:24:23.343Z,101401.78
2022-08-30T18:26:50.319Z,101398.22
2022-08-30T18:29:28.924Z,101400.34
2022-08-30T18:32:02.213Z,101398.28
2022-08-30T18:34:29.780Z,101406.78
2022-08-30T18:36:56.913Z,101402.81
2022-08-30T18:39:23.722Z,101405.09
2022-08-30T18:41:51.011Z,101409.84
2022-08-30T18:44:29.238Z,101404.19
2022-08-30T18:46:57.734Z,101411.81
2022-08-30T18:49:25.632Z,101408.34
2022-08-30T18:51:52.674Z,101414.56
2022-08-30T18:54:19.364Z,101410.28
2022-08-30T18:56:46.130Z,101410.41
2022-08-30T18:59:12.850Z,101408.41
2022-08-30T19:01:40.514Z,101416.44
2022-08-30T19:04:07.675Z,101414.53
2022-08-30T19:06:34.734Z,101414.97
2022-08-30T19:09:04.650Z,101424.75
2022-08-30T19:11:36.564Z,101418.50
2022-08-30T19:14:05.398Z,101421.47
2022-08-30T19:16:34.399Z,101422.97
2022-08-30T19:19:01.060Z,101427.84
2022-08-30T19:21:27.772Z,101432.50
2022-08-30T19:23:55.212Z,101431.69
2022-08-30T19:26:21.904Z,101430.94
2022-08-30T19:28:48.593Z,101424.06
2022-08-30T19:31:15.179Z,101429.81
2022-08-30T19:33:41.779Z,101425.84
2022-08-30T19:36:08.498Z,101417.72
2022-08-30T19:38:36.731Z,101425.47
2022-08-30T19:41:04.274Z,101430.38
2022-08-30T19:43:31.233Z,101421.03
2022-08-30T19:45:59.499Z,101420.34
2022-08-30T19:48:32.033Z,101428.66
2022-08-30T19:50:59.894Z,101431.72
2022-08-30T19:53:27.092Z,101426.03
2022-08-30T19:55:54.321Z,101433.28
2022-08-30T19:58:20.871Z,101429.97
2022-08-30T20:00:57.783Z,101439.50
2022-08-30T20:03:27.812Z,101436.75
2022-08-30T20:05:54.861Z,101432.22
2022-08-30T20:08:21.957Z,101431.06
2022-08-30T20:10:48.865Z,101433.56
2022-08-30T20:13:17.148Z,101431.72
2022-08-30T20:15:57.771Z,101436.16
2022-08-30T20:18:26.390Z,101440.47
2022-08-30T20:20:53.446Z,101436.50
2022-08-30T20:23:22.740Z,101444.09
2022-08-30T20:25:55.382Z,101438.78
2022-08-30T20:28:23.647Z,101428.91
2022-08-30T20:30:51.198Z,101428.53
2022-08-30T20:33:19.124Z,101417.66
2022-08-30T20:35:49.389Z,101421.97
2022-08-30T20:38:21.158Z,101427.19
2022-08-30T20:40:50.377Z,101429.06
2022-08-30T20:43:22.684Z,101430.59
2022-08-30T20:45:49.777Z,101431.19
2022-08-30T20:48:17.802Z,101439.06
2022-08-30T20:50:44.789Z,101434.16
2022-08-30T20:53:12.589Z,101440.69
2022-08-30T20:55:43.990Z,101435.16
2022-08-30T20:58:11.141Z,101441.84
2022-08-30T21:00:38.257Z,101443.94
2022-08-30T21:03:13.331Z,101440.91
2022-08-30T21:05:53.169Z,101447.19
2022-08-30T21:08:20.142Z,101446.47
2022-08-30T21:10:47.819Z,101443.94
2022-08-30T21:13:14.702Z,101442.91
2022-08-30T21:15:45.664Z,101455.84
2022-08-30T21:18:13.802Z,101445.19
2022-08-30T21:20:40.473Z,101452.63
2022-08-30T21:23:07.076Z,101458.97
2022-08-30T21:25:34.120Z,101450.75
2022-08-30T21:28:00.687Z,101455.28
2022-08-30T21:30:27.276Z,101458.84
2022-08-30T21:32:53.938Z,101458.28
2022-08-30T21:35:39.293Z,101459.66
2022-08-30T21:38:08.817Z,101455.50
2022-08-30T21:40:36.411Z,101457.25
2022-08-30T21:43:05.980Z,101456.41
2022-08-30T21:45:36.867Z,101457.91
2022-08-30T21:48:04.181Z,101456.31
2022-08-30T21:50:30.778Z,101465.50
2022-08-30T21:52:57.319Z,101459.69
2022-08-30T21:55:24.013Z,101464.47
2022-08-30T21:57:50.590Z,101467.78
2022-08-30T22:00:20.636Z,101467.94
2022-08-30T22:02:49.260Z,101472.44
2022-08-30T22:05:20.527Z,101466.00
2022-08-30T22:07:47.106Z,101475.47
2022-08-30T22:10:13.643Z,101472.72
2022-08-30T22:12:41.617Z,101470.56
2022-08-30T22:15:08.897Z,101475.34
2022-08-30T22:17:35.465Z,101470.44
2022-08-30T22:20:02.096Z,101467.22
2022-08-30T22:22:28.612Z,101469.09
2022-08-30T22:24:55.093Z,101470.78
2022-08-30T22:27:21.635Z,101471.66
2022-08-30T22:29:48.231Z,101464.13
2022-08-30T22:32:14.908Z,101472.19
2022-08-30T22:34:44.896Z,101472.28
2022-08-30T22:37:11.403Z,101471.88
2022-08-30T22:39:37.900Z,101465.38
2022-08-30T22:42:05.120Z,101475.31
2022-08-30T22:44:31.967Z,101475.09
2022-08-30T22:46:58.517Z,101480.59
2022-08-30T22:49:26.101Z,101480.31
2022-08-30T22:51:52.637Z,101482.31
2022-08-30T22:54:19.182Z,101476.91
2022-08-30T22:56:46.634Z,101480.28
2022-08-30T22:59:13.189Z,101489.06
2022-08-30T23:01:44.479Z,101483.22
2022-08-30T23:04:11.646Z,101493.69
2022-08-30T23:06:38.331Z,101498.34
2022-08-30T23:09:06.638Z,101496.38
2022-08-30T23:11:33.921Z,101492.84
2022-08-30T23:14:02.070Z,101492.22
2022-08-30T23:16:28.790Z,101494.25
2022-08-30T23:18:55.314Z,101493.75
2022-08-30T23:21:25.805Z,101499.31
2022-08-30T23:24:12.672Z,101507.28
2022-08-30T23:26:58.619Z,101514.75
2022-08-30T23:29:44.048Z,101526.78
2022-08-30T23:32:29.985Z,101525.53
2022-08-30T23:35:14.898Z,101516.94
2022-08-30T23:38:00.257Z,101516.38
2022-08-30T23:40:45.338Z,101515.94
2022-08-30T23:43:30.992Z,101510.03
2022-08-30T23:46:19.500Z,101525.16
2022-08-30T23:49:08.117Z,101516.47
2022-08-30T23:51:55.517Z,101513.38
2022-08-30T23:54:41.258Z,101517.06
2022-08-30T23:57:26.597Z,101513.81
